Huvudsida
METAR-TAF:

METAR-TAF

Flygplatser :

Inverness Dalcross Airport

Inverness, Skottland

latitud: 57-32N, longitud: 004-03W, höjd: 9 m

Aktuellt väderrapport

Denna rapport gjordes för 17 minuter sedan, klockan 18:20 UTC
Vind 2 kt varierande vindriktning
Temperatur 18°C
Fuktighet 73%
Tryck 1023 hPa
Sikt 10 km eller mer
Inga moln under 1 500 m eller inga cumulonimbus

METAR: EGPE 291820Z VRB02KT CAVOK 18/13 Q1023

Tid: 19:37 (18:37 UTC)

Väderprognos

Denna rapport gjordes för 4 timmar och 42 minuter sedan, klockan 13:55 UTC
Prognos gäller från 29 kl. 15 UTC till 29 kl. 24 UTC
Vind 8 kt från nordost
Sikt 10 km eller mer
Inga moln under 1 500 m eller inga cumulonimbus

TAF: EGPE 291355Z 2915/2924 04008KT CAVOK

Aktuella väderrapporter och prognoser från 4000 flygplatser (METAR- och TAF-rapporter).

De tillgängliga stationerna syns som gula och röda prickar på kartan.

För musen över prickarna för att se namnen på stationerna.

Klicka sedan för att få väderrapporter och prognoser.

För att ändra kartan: Klicka på de gröna knapparna med ett svart kors på för att zooma in; den gröna knappen med ett streck på för att zooma ut; eller på de gröna pilarna för angränsande kartor.


METAR-TAF: